sensor_id;sensor_type;location;lat;lon;timestamp;pressure;altitude;pressure_sealevel;temperature;humidity
28628;BME280;15815;46.760;19.604;2023-04-16T00:00:40;99927.59;;;8.69;88.64
28628;BME280;15815;46.760;19.604;2023-04-16T00:03:06;99915.63;;;8.54;89.54
28628;BME280;15815;46.760;19.604;2023-04-16T00:05:31;99922.81;;;8.59;88.60
28628;BME280;15815;46.760;19.604;2023-04-16T00:07:57;99916.81;;;8.64;88.20
28628;BME280;15815;46.760;19.604;2023-04-16T00:10:22;99906.41;;;8.54;88.65
28628;BME280;15815;46.760;19.604;2023-04-16T00:12:48;99900.81;;;8.43;89.34
28628;BME280;15815;46.760;19.604;2023-04-16T00:15:13;99932.00;;;8.70;89.17
28628;BME280;15815;46.760;19.604;2023-04-16T00:17:39;99930.81;;;8.64;89.43
28628;BME280;15815;46.760;19.604;2023-04-16T00:20:05;99934.03;;;8.59;89.48
28628;BME280;15815;46.760;19.604;2023-04-16T00:22:31;99920.41;;;8.47;89.31
28628;BME280;15815;46.760;19.604;2023-04-16T00:24:56;99940.44;;;8.56;89.34
28628;BME280;15815;46.760;19.604;2023-04-16T00:27:24;99932.00;;;8.49;89.77
28628;BME280;15815;46.760;19.604;2023-04-16T00:29:50;99938.00;;;8.44;90.52
28628;BME280;15815;46.760;19.604;2023-04-16T00:32:15;99927.63;;;8.33;90.32
28628;BME280;15815;46.760;19.604;2023-04-16T00:34:41;99917.19;;;8.23;90.54
28628;BME280;15815;46.760;19.604;2023-04-16T00:37:07;99934.00;;;8.34;90.53
28628;BME280;15815;46.760;19.604;2023-04-16T00:39:33;99928.78;;;8.25;90.49
28628;BME280;15815;46.760;19.604;2023-04-16T00:41:58;99942.41;;;8.38;90.50
28628;BME280;15815;46.760;19.604;2023-04-16T00:44:24;99923.56;;;8.10;91.89
28628;BME280;15815;46.760;19.604;2023-04-16T00:46:49;99942.78;;;8.22;91.17
28628;BME280;15815;46.760;19.604;2023-04-16T00:49:15;99943.97;;;8.24;90.51
28628;BME280;15815;46.760;19.604;2023-04-16T00:51:42;99922.34;;;8.03;90.29
28628;BME280;15815;46.760;19.604;2023-04-16T00:54:07;99938.72;;;8.01;90.08
28628;BME280;15815;46.760;19.604;2023-04-16T00:56:34;99915.50;;;7.83;90.82
28628;BME280;15815;46.760;19.604;2023-04-16T00:59:01;99915.50;;;7.80;92.76
28628;BME280;15815;46.760;19.604;2023-04-16T01:01:27;99903.88;;;7.74;91.55
28628;BME280;15815;46.760;19.604;2023-04-16T01:03:54;99904.28;;;7.72;91.67
28628;BME280;15815;46.760;19.604;2023-04-16T01:06:21;99925.06;;;7.71;92.63
28628;BME280;15815;46.760;19.604;2023-04-16T01:08:47;99929.81;;;7.60;92.49
28628;BME280;15815;46.760;19.604;2023-04-16T01:11:14;99938.25;;;7.71;91.09
28628;BME280;15815;46.760;19.604;2023-04-16T01:13:42;99931.41;;;7.61;91.12
28628;BME280;15815;46.760;19.604;2023-04-16T01:16:10;99929.00;;;7.63;90.12
28628;BME280;15815;46.760;19.604;2023-04-16T01:18:36;99938.56;;;7.55;90.07
28628;BME280;15815;46.760;19.604;2023-04-16T01:21:03;99958.59;;;7.64;90.99
28628;BME280;15815;46.760;19.604;2023-04-16T01:23:29;99941.75;;;7.54;91.45
28628;BME280;15815;46.760;19.604;2023-04-16T01:25:55;99951.38;;;7.56;91.64
28628;BME280;15815;46.760;19.604;2023-04-16T01:28:20;99933.34;;;7.47;91.83
28628;BME280;15815;46.760;19.604;2023-04-16T01:30:46;99934.16;;;7.47;91.40
28628;BME280;15815;46.760;19.604;2023-04-16T01:33:13;99955.34;;;7.55;91.38
28628;BME280;15815;46.760;19.604;2023-04-16T01:35:38;99961.75;;;7.52;90.95
28628;BME280;15815;46.760;19.604;2023-04-16T01:38:05;99950.94;;;7.51;91.09
28628;BME280;15815;46.760;19.604;2023-04-16T01:40:31;99932.50;;;7.39;91.10
28628;BME280;15815;46.760;19.604;2023-04-16T01:42:57;99936.13;;;7.43;91.04
28628;BME280;15815;46.760;19.604;2023-04-16T01:45:23;99930.84;;;7.27;90.88
28628;BME280;15815;46.760;19.604;2023-04-16T01:47:52;99940.06;;;7.31;91.97
28628;BME280;15815;46.760;19.604;2023-04-16T01:50:19;99920.03;;;7.15;91.46
28628;BME280;15815;46.760;19.604;2023-04-16T01:52:48;99944.84;;;7.31;91.40
28628;BME280;15815;46.760;19.604;2023-04-16T01:55:14;99914.78;;;7.10;90.88
28628;BME280;15815;46.760;19.604;2023-04-16T01:57:39;99928.00;;;7.13;91.24
28628;BME280;15815;46.760;19.604;2023-04-16T02:00:05;99921.16;;;7.10;91.23
28628;BME280;15815;46.760;19.604;2023-04-16T02:02:31;99925.16;;;7.09;91.53
28628;BME280;15815;46.760;19.604;2023-04-16T02:04:58;99938.38;;;7.12;90.64
28628;BME280;15815;46.760;19.604;2023-04-16T02:07:24;99934.28;;;6.99;91.57
28628;BME280;15815;46.760;19.604;2023-04-16T02:09:49;99937.50;;;7.01;91.41
28628;BME280;15815;46.760;19.604;2023-04-16T02:12:15;99934.28;;;6.99;91.36
28628;BME280;15815;46.760;19.604;2023-04-16T02:14:41;99930.31;;;7.04;91.25
28628;BME280;15815;46.760;19.604;2023-04-16T02:17:08;99940.72;;;7.10;91.54
28628;BME280;15815;46.760;19.604;2023-04-16T02:19:34;99934.81;;;7.16;91.30
28628;BME280;15815;46.760;19.604;2023-04-16T02:21:59;99948.84;;;7.30;90.85
28628;BME280;15815;46.760;19.604;2023-04-16T02:24:27;99940.00;;;7.17;92.63
28628;BME280;15815;46.760;19.604;2023-04-16T02:26:53;99943.19;;;7.16;92.14
28628;BME280;15815;46.760;19.604;2023-04-16T02:29:19;99943.97;;;7.16;92.21
28628;BME280;15815;46.760;19.604;2023-04-16T02:31:44;99943.19;;;7.19;92.00
28628;BME280;15815;46.760;19.604;2023-04-16T02:34:10;99965.28;;;7.42;92.34
28628;BME280;15815;46.760;19.604;2023-04-16T02:36:35;99971.66;;;7.39;92.24
28628;BME280;15815;46.760;19.604;2023-04-16T02:39:01;99948.81;;;7.26;91.80
28628;BME280;15815;46.760;19.604;2023-04-16T02:41:27;99972.13;;;7.48;92.25
28628;BME280;15815;46.760;19.604;2023-04-16T02:43:52;99944.06;;;7.34;92.06
28628;BME280;15815;46.760;19.604;2023-04-16T02:46:18;99938.47;;;7.34;92.03
28628;BME280;15815;46.760;19.604;2023-04-16T02:48:43;99944.13;;;7.41;92.24
28628;BME280;15815;46.760;19.604;2023-04-16T02:51:09;99956.13;;;7.45;92.62
28628;BME280;15815;46.760;19.604;2023-04-16T02:53:37;99960.94;;;7.48;93.05
28628;BME280;15815;46.760;19.604;2023-04-16T02:56:03;99943.31;;;7.40;92.81
28628;BME280;15815;46.760;19.604;2023-04-16T02:58:29;99953.31;;;7.45;93.97
28628;BME280;15815;46.760;19.604;2023-04-16T03:00:55;99960.56;;;7.57;93.45
28628;BME280;15815;46.760;19.604;2023-04-16T03:03:21;99951.38;;;7.56;93.48
28628;BME280;15815;46.760;19.604;2023-04-16T03:05:48;99951.38;;;7.60;93.53
28628;BME280;15815;46.760;19.604;2023-04-16T03:08:13;99939.34;;;7.45;93.99
28628;BME280;15815;46.760;19.604;2023-04-16T03:10:39;99945.78;;;7.56;94.66
28628;BME280;15815;46.760;19.604;2023-04-16T03:13:04;99950.97;;;7.61;93.40
28628;BME280;15815;46.760;19.604;2023-04-16T03:15:30;99924.97;;;7.47;94.59
28628;BME280;15815;46.760;19.604;2023-04-16T03:17:56;99955.38;;;7.59;94.72
28628;BME280;15815;46.760;19.604;2023-04-16T03:20:23;99961.78;;;7.66;94.61
28628;BME280;15815;46.760;19.604;2023-04-16T03:22:48;99948.56;;;7.56;95.32
28628;BME280;15815;46.760;19.604;2023-04-16T03:25:14;99932.56;;;7.53;95.37
28628;BME280;15815;46.760;19.604;2023-04-16T03:27:40;99935.75;;;7.48;95.73
28628;BME280;15815;46.760;19.604;2023-04-16T03:30:07;99941.78;;;7.61;95.76
28628;BME280;15815;46.760;19.604;2023-04-16T03:32:33;99950.25;;;7.71;94.62
28628;BME280;15815;46.760;19.604;2023-04-16T03:34:58;99956.97;;;7.63;96.57
28628;BME280;15815;46.760;19.604;2023-04-16T03:37:24;99940.19;;;7.56;96.28
28628;BME280;15815;46.760;19.604;2023-04-16T03:39:49;99965.03;;;7.72;96.02
28628;BME280;15815;46.760;19.604;2023-04-16T03:42:15;99955.34;;;7.55;97.39
28628;BME280;15815;46.760;19.604;2023-04-16T03:44:41;99941.75;;;7.50;97.30
28628;BME280;15815;46.760;19.604;2023-04-16T03:47:06;99953.78;;;7.58;97.30
28628;BME280;15815;46.760;19.604;2023-04-16T03:49:32;99963.38;;;7.60;97.75
28628;BME280;15815;46.760;19.604;2023-04-16T03:52:00;99973.81;;;7.70;97.03
28628;BME280;15815;46.760;19.604;2023-04-16T03:54:26;99954.22;;;7.70;96.53
28628;BME280;15815;46.760;19.604;2023-04-16T03:56:51;99956.63;;;7.72;96.54
28628;BME280;15815;46.760;19.604;2023-04-16T03:59:17;99973.84;;;7.78;96.74
28628;BME280;15815;46.760;19.604;2023-04-16T04:01:43;99978.25;;;7.86;96.79
28628;BME280;15815;46.760;19.604;2023-04-16T04:04:08;99954.63;;;7.72;97.13
28628;BME280;15815;46.760;19.604;2023-04-16T04:06:35;99938.59;;;7.59;97.22
28628;BME280;15815;46.760;19.604;2023-04-16T04:09:01;99963.44;;;7.78;97.27
28628;BME280;15815;46.760;19.604;2023-04-16T04:11:30;99965.03;;;7.75;97.84
28628;BME280;15815;46.760;19.604;2023-04-16T04:13:56;99943.84;;;7.67;97.88
28628;BME280;15815;46.760;19.604;2023-04-16T04:16:22;99983.84;;;7.82;98.23
28628;BME280;15815;46.760;19.604;2023-04-16T04:18:48;99962.66;;;7.78;98.00
28628;BME280;15815;46.760;19.604;2023-04-16T04:21:13;99965.84;;;7.83;98.01
28628;BME280;15815;46.760;19.604;2023-04-16T04:23:39;99948.66;;;7.74;97.34
28628;BME280;15815;46.760;19.604;2023-04-16T04:26:04;99971.06;;;7.88;97.52
28628;BME280;15815;46.760;19.604;2023-04-16T04:28:31;99969.88;;;7.89;98.11
28628;BME280;15815;46.760;19.604;2023-04-16T04:30:57;99980.31;;;7.96;98.05
28628;BME280;15815;46.760;19.604;2023-04-16T04:33:24;99955.06;;;7.82;98.36
28628;BME280;15815;46.760;19.604;2023-04-16T04:35:50;99957.13;;;7.95;98.70
28628;BME280;15815;46.760;19.604;2023-04-16T04:38:16;99973.94;;;8.10;98.46
28628;BME280;15815;46.760;19.604;2023-04-16T04:40:43;99951.53;;;8.06;98.33
28628;BME280;15815;46.760;19.604;2023-04-16T04:43:08;99976.38;;;8.25;98.47
28628;BME280;15815;46.760;19.604;2023-04-16T04:45:34;99980.38;;;8.31;98.06
28628;BME280;15815;46.760;19.604;2023-04-16T04:47:59;99964.78;;;8.23;97.89
28628;BME280;15815;46.760;19.604;2023-04-16T04:50:25;99986.81;;;8.43;97.68
28628;BME280;15815;46.760;19.604;2023-04-16T04:52:50;99972.81;;;8.35;98.22
28628;BME280;15815;46.760;19.604;2023-04-16T04:55:17;99968.81;;;8.36;98.25
28628;BME280;15815;46.760;19.604;2023-04-16T04:57:42;99971.63;;;8.44;97.42
28628;BME280;15815;46.760;19.604;2023-04-16T05:00:08;99970.44;;;8.52;97.25
28628;BME280;15815;46.760;19.604;2023-04-16T05:02:34;99976.44;;;8.68;97.44
28628;BME280;15815;46.760;19.604;2023-04-16T05:04:59;99983.25;;;8.78;97.40
28628;BME280;15815;46.760;19.604;2023-04-16T05:07:25;99979.66;;;8.91;96.55
28628;BME280;15815;46.760;19.604;2023-04-16T05:09:50;99995.66;;;9.16;95.56
28628;BME280;15815;46.760;19.604;2023-04-16T05:12:16;99991.19;;;9.43;95.32
28628;BME280;15815;46.760;19.604;2023-04-16T05:14:41;99981.91;;;9.57;94.87
28628;BME280;15815;46.760;19.604;2023-04-16T05:17:07;99987.91;;;9.70;94.63
28628;BME280;15815;46.760;19.604;2023-04-16T05:19:35;99999.84;;;9.84;94.30
28628;BME280;15815;46.760;19.604;2023-04-16T05:22:01;99988.22;;;9.86;92.59
28628;BME280;15815;46.760;19.604;2023-04-16T05:24:28;99998.53;;;10.21;92.46
28628;BME280;15815;46.760;19.604;2023-04-16T05:26:53;99982.03;;;10.27;90.50
28628;BME280;15815;46.760;19.604;2023-04-16T05:29:19;99968.75;;;10.31;89.79
28628;BME280;15815;46.760;19.604;2023-04-16T05:31:45;99990.97;;;10.66;88.86
28628;BME280;15815;46.760;19.604;2023-04-16T05:34:10;99983.69;;;10.76;88.64
28628;BME280;15815;46.760;19.604;2023-04-16T05:36:36;99978.09;;;10.72;87.99
28628;BME280;15815;46.760;19.604;2023-04-16T05:39:01;100002.06;;;11.32;86.67
28628;BME280;15815;46.760;19.604;2023-04-16T05:41:27;99981.69;;;11.59;85.85
28628;BME280;15815;46.760;19.604;2023-04-16T05:43:52;99984.03;;;11.64;84.11
28628;BME280;15815;46.760;19.604;2023-04-16T05:46:19;99993.53;;;11.77;83.40
28628;BME280;15815;46.760;19.604;2023-04-16T05:48:45;99994.69;;;11.83;83.08
28628;BME280;15815;46.760;19.604;2023-04-16T05:51:10;99997.09;;;11.85;81.08
28628;BME280;15815;46.760;19.604;2023-04-16T05:53:36;99988.31;;;11.79;80.40
28628;BME280;15815;46.760;19.604;2023-04-16T05:56:01;99992.00;;;12.06;81.29
28628;BME280;15815;46.760;19.604;2023-04-16T05:58:27;99988.00;;;12.31;79.72
28628;BME280;15815;46.760;19.604;2023-04-16T06:00:53;100014.78;;;12.46;79.75
28628;BME280;15815;46.760;19.604;2023-04-16T06:03:18;100010.22;;;12.56;78.46
28628;BME280;15815;46.760;19.604;2023-04-16T06:05:44;100010.75;;;12.47;78.48
28628;BME280;15815;46.760;19.604;2023-04-16T06:08:09;100016.97;;;12.35;76.56
28628;BME280;15815;46.760;19.604;2023-04-16T06:10:35;100001.38;;;12.27;77.32
28628;BME280;15815;46.760;19.604;2023-04-16T06:13:02;100003.00;;;12.24;75.69
28628;BME280;15815;46.760;19.604;2023-04-16T06:15:27;100029.31;;;12.45;75.43
28628;BME280;15815;46.760;19.604;2023-04-16T06:17:57;100012.94;;;12.36;75.62
28628;BME280;15815;46.760;19.604;2023-04-16T06:20:23;100004.66;;;12.22;75.48
28628;BME280;15815;46.760;19.604;2023-04-16T06:22:48;100026.66;;;12.34;75.08
28628;BME280;15815;46.760;19.604;2023-04-16T06:25:14;100026.13;;;12.43;75.55
28628;BME280;15815;46.760;19.604;2023-04-16T06:27:39;100017.09;;;12.24;74.36
28628;BME280;15815;46.760;19.604;2023-04-16T06:30:10;100038.91;;;12.20;73.58
28628;BME280;15815;46.760;19.604;2023-04-16T06:32:36;100017.00;;;12.01;74.60
28628;BME280;15815;46.760;19.604;2023-04-16T06:35:02;100022.25;;;11.99;74.77
28628;BME280;15815;46.760;19.604;2023-04-16T06:37:27;100021.19;;;11.89;75.05
28628;BME280;15815;46.760;19.604;2023-04-16T06:39:53;100052.75;;;12.07;74.83
28628;BME280;15815;46.760;19.604;2023-04-16T06:42:19;100037.19;;;11.96;74.90
28628;BME280;15815;46.760;19.604;2023-04-16T06:44:45;100041.59;;;11.97;75.69
28628;BME280;15815;46.760;19.604;2023-04-16T06:47:10;100056.97;;;12.23;75.43
28628;BME280;15815;46.760;19.604;2023-04-16T06:49:36;100047.41;;;12.17;74.85
28628;BME280;15815;46.760;19.604;2023-04-16T06:52:02;100044.94;;;12.19;74.78
28628;BME280;15815;46.760;19.604;2023-04-16T06:54:27;100040.44;;;12.25;74.79
28628;BME280;15815;46.760;19.604;2023-04-16T06:56:53;100050.00;;;12.31;75.03
28628;BME280;15815;46.760;19.604;2023-04-16T06:59:18;100040.75;;;12.34;75.25
28628;BME280;15815;46.760;19.604;2023-04-16T07:01:44;100051.16;;;12.37;75.18
28628;BME280;15815;46.760;19.604;2023-04-16T07:04:11;100046.81;;;12.29;75.28
28628;BME280;15815;46.760;19.604;2023-04-16T07:06:36;100048.41;;;12.33;74.99
28628;BME280;15815;46.760;19.604;2023-04-16T07:09:02;100056.75;;;12.41;74.29
28628;BME280;15815;46.760;19.604;2023-04-16T07:11:29;100042.19;;;12.46;73.99
28628;BME280;15815;46.760;19.604;2023-04-16T07:13:54;100050.78;;;13.16;72.87
28628;BME280;15815;46.760;19.604;2023-04-16T07:16:20;100057.06;;;13.50;72.72
28628;BME280;15815;46.760;19.604;2023-04-16T07:18:45;100069.25;;;13.67;71.41
28628;BME280;15815;46.760;19.604;2023-04-16T07:21:11;100041.00;;;13.67;70.38
28628;BME280;15815;46.760;19.604;2023-04-16T07:23:36;100051.97;;;13.85;70.79
28628;BME280;15815;46.760;19.604;2023-04-16T07:26:03;100067.09;;;13.95;69.39
28628;BME280;15815;46.760;19.604;2023-04-16T07:28:31;100070.63;;;14.02;69.18
28628;BME280;15815;46.760;19.604;2023-04-16T07:30:57;100053.16;;;14.07;68.77
28628;BME280;15815;46.760;19.604;2023-04-16T07:33:23;100067.47;;;14.36;68.64
28628;BME280;15815;46.760;19.604;2023-04-16T07:35:48;100067.75;;;14.42;68.56
28628;BME280;15815;46.760;19.604;2023-04-16T07:38:14;100083.88;;;14.45;67.45
28628;BME280;15815;46.760;19.604;2023-04-16T07:40:40;100045.22;;;14.18;66.53
28628;BME280;15815;46.760;19.604;2023-04-16T07:43:05;100063.78;;;14.39;67.12
28628;BME280;15815;46.760;19.604;2023-04-16T07:45:32;100074.31;;;14.59;66.67
28628;BME280;15815;46.760;19.604;2023-04-16T07:47:58;100069.44;;;14.59;66.24
28628;BME280;15815;46.760;19.604;2023-04-16T07:50:24;100061.19;;;14.84;66.14
28628;BME280;15815;46.760;19.604;2023-04-16T07:52:50;100074.72;;;15.26;65.98
28628;BME280;15815;46.760;19.604;2023-04-16T07:55:15;100086.84;;;15.59;65.32
28628;BME280;15815;46.760;19.604;2023-04-16T07:57:41;100079.28;;;15.85;63.87
28628;BME280;15815;46.760;19.604;2023-04-16T08:00:07;100078.75;;;16.19;65.02
28628;BME280;15815;46.760;19.604;2023-04-16T08:02:33;100075.44;;;16.49;62.65
28628;BME280;15815;46.760;19.604;2023-04-16T08:04:59;100085.03;;;16.93;63.12
28628;BME280;15815;46.760;19.604;2023-04-16T08:07:24;100095.13;;;17.20;61.38
28628;BME280;15815;46.760;19.604;2023-04-16T08:09:51;100074.47;;;16.94;59.81
28628;BME280;15815;46.760;19.604;2023-04-16T08:12:17;100074.69;;;17.25;60.00
28628;BME280;15815;46.760;19.604;2023-04-16T08:14:44;100070.13;;;17.40;59.02
28628;BME280;15815;46.760;19.604;2023-04-16T08:17:11;100075.03;;;17.87;61.06
28628;BME280;15815;46.760;19.604;2023-04-16T08:19:41;100076.28;;;17.86;55.92
28628;BME280;15815;46.760;19.604;2023-04-16T08:22:07;100064.91;;;17.86;57.97
28628;BME280;15815;46.760;19.604;2023-04-16T08:24:33;100080.19;;;18.01;55.32
28628;BME280;15815;46.760;19.604;2023-04-16T08:26:58;100092.31;;;18.14;54.84
28628;BME280;15815;46.760;19.604;2023-04-16T08:29:24;100068.44;;;18.12;55.35
28628;BME280;15815;46.760;19.604;2023-04-16T08:31:49;100074.00;;;18.37;56.60
28628;BME280;15815;46.760;19.604;2023-04-16T08:34:15;100082.44;;;18.50;54.75
28628;BME280;15815;46.760;19.604;2023-04-16T08:36:41;100070.38;;;18.37;55.03
28628;BME280;15815;46.760;19.604;2023-04-16T08:39:09;100064.72;;;18.46;55.29
28628;BME280;15815;46.760;19.604;2023-04-16T08:41:37;100085.06;;;19.19;54.41
28628;BME280;15815;46.760;19.604;2023-04-16T08:44:07;100090.06;;;19.15;52.24
28628;BME280;15815;46.760;19.604;2023-04-16T08:46:36;100067.38;;;19.42;53.26
28628;BME280;15815;46.760;19.604;2023-04-16T08:49:05;100093.13;;;19.79;51.66
28628;BME280;15815;46.760;19.604;2023-04-16T08:51:34;100076.03;;;19.79;49.82
28628;BME280;15815;46.760;19.604;2023-04-16T08:54:13;100077.72;;;19.67;50.80
28628;BME280;15815;46.760;19.604;2023-04-16T08:56:40;100103.59;;;19.73;51.82
28628;BME280;15815;46.760;19.604;2023-04-16T08:59:08;100084.88;;;19.72;51.01
28628;BME280;15815;46.760;19.604;2023-04-16T09:01:34;100088.59;;;19.41;52.51
28628;BME280;15815;46.760;19.604;2023-04-16T09:04:00;100070.34;;;18.90;51.96
28628;BME280;15815;46.760;19.604;2023-04-16T09:06:27;100097.34;;;18.76;53.45
28628;BME280;15815;46.760;19.604;2023-04-16T09:08:54;100101.91;;;18.51;54.05
28628;BME280;15815;46.760;19.604;2023-04-16T09:11:20;100079.34;;;17.91;53.01
28628;BME280;15815;46.760;19.604;2023-04-16T09:13:46;100105.75;;;17.79;54.42
28628;BME280;15815;46.760;19.604;2023-04-16T09:16:12;100104.97;;;17.66;55.16
28628;BME280;15815;46.760;19.604;2023-04-16T09:18:38;100102.88;;;17.32;55.54
28628;BME280;15815;46.760;19.604;2023-04-16T09:21:08;100081.06;;;17.29;56.51
28628;BME280;15815;46.760;19.604;2023-04-16T09:23:36;100086.84;;;17.13;57.49
28628;BME280;15815;46.760;19.604;2023-04-16T09:26:03;100079.38;;;17.06;57.37
28628;BME280;15815;46.760;19.604;2023-04-16T09:28:43;100074.38;;;16.85;58.10
28628;BME280;15815;46.760;19.604;2023-04-16T09:33:38;100090.81;;;16.90;58.26
28628;BME280;15815;46.760;19.604;2023-04-16T09:36:04;100105.13;;;16.86;58.37
28628;BME280;15815;46.760;19.604;2023-04-16T09:38:49;100096.50;;;16.77;58.67
28628;BME280;15815;46.760;19.604;2023-04-16T09:41:15;100105.13;;;16.86;58.51
28628;BME280;15815;46.760;19.604;2023-04-16T09:43:58;100076.53;;;16.81;57.47
28628;BME280;15815;46.760;19.604;2023-04-16T09:46:33;100077.88;;;16.89;57.51
28628;BME280;15815;46.760;19.604;2023-04-16T09:49:28;100098.13;;;17.04;57.08
28628;BME280;15815;46.760;19.604;2023-04-16T09:51:58;100087.09;;;17.06;57.87
28628;BME280;15815;46.760;19.604;2023-04-16T09:54:24;100092.41;;;16.91;56.94
28628;BME280;15815;46.760;19.604;2023-04-16T09:56:50;100105.22;;;16.70;57.73
28628;BME280;15815;46.760;19.604;2023-04-16T09:59:22;100112.75;;;16.89;58.71
28628;BME280;15815;46.760;19.604;2023-04-16T10:01:51;100094.94;;;17.27;58.12
28628;BME280;15815;46.760;19.604;2023-04-16T10:04:26;100086.28;;;17.18;57.95
28628;BME280;15815;46.760;19.604;2023-04-16T10:07:05;100082.97;;;17.19;57.85
28628;BME280;15815;46.760;19.604;2023-04-16T10:09:32;100085.94;;;17.28;57.86
28628;BME280;15815;46.760;19.604;2023-04-16T10:12:04;100073.97;;;17.46;57.60
28628;BME280;15815;46.760;19.604;2023-04-16T10:14:29;100065.56;;;17.55;57.13
28628;BME280;15815;46.760;19.604;2023-04-16T10:16:55;100071.44;;;17.74;57.92
28628;BME280;15815;46.760;19.604;2023-04-16T10:19:23;100072.66;;;18.07;57.95
28628;BME280;15815;46.760;19.604;2023-04-16T10:21:49;100056.72;;;17.88;57.37
28628;BME280;15815;46.760;19.604;2023-04-16T10:24:16;100072.22;;;18.09;56.48
28628;BME280;15815;46.760;19.604;2023-04-16T10:26:43;100074.00;;;18.15;56.74
28628;BME280;15815;46.760;19.604;2023-04-16T10:29:10;100066.19;;;18.07;56.09
28628;BME280;15815;46.760;19.604;2023-04-16T10:31:37;100069.75;;;17.98;56.86
28628;BME280;15815;46.760;19.604;2023-04-16T10:34:04;100051.38;;;17.90;56.62
28628;BME280;15815;46.760;19.604;2023-04-16T10:36:37;100063.50;;;17.69;56.62
28628;BME280;15815;46.760;19.604;2023-04-16T10:39:09;100086.63;;;17.80;56.62
28628;BME280;15815;46.760;19.604;2023-04-16T10:41:35;100089.97;;;17.66;57.19
28628;BME280;15815;46.760;19.604;2023-04-16T10:44:08;100085.88;;;17.67;58.24
28628;BME280;15815;46.760;19.604;2023-04-16T10:46:46;100074.75;;;17.47;58.73
28628;BME280;15815;46.760;19.604;2023-04-16T10:49:18;100092.72;;;17.56;58.64
28628;BME280;15815;46.760;19.604;2023-04-16T10:51:57;100083.50;;;17.52;59.10
28628;BME280;15815;46.760;19.604;2023-04-16T10:54:31;100070.78;;;17.44;59.13
28628;BME280;15815;46.760;19.604;2023-04-16T10:56:58;100063.78;;;17.36;58.88
28628;BME280;15815;46.760;19.604;2023-04-16T10:59:28;100083.53;;;17.40;59.01
28628;BME280;15815;46.760;19.604;2023-04-16T11:01:58;100073.78;;;17.28;58.38
28628;BME280;15815;46.760;19.604;2023-04-16T11:04:26;100083.44;;;17.30;58.05
28628;BME280;15815;46.760;19.604;2023-04-16T11:09:58;100108.97;;;17.56;58.85
28628;BME280;15815;46.760;19.604;2023-04-16T11:12:37;100107.16;;;17.49;58.91
28628;BME280;15815;46.760;19.604;2023-04-16T11:15:12;100108.84;;;17.47;58.29
28628;BME280;15815;46.760;19.604;2023-04-16T11:17:50;100076.63;;;17.28;57.91
28628;BME280;15815;46.760;19.604;2023-04-16T11:20:22;100079.91;;;17.39;58.81
28628;BME280;15815;46.760;19.604;2023-04-16T11:22:48;100086.69;;;17.54;58.43
28628;BME280;15815;46.760;19.604;2023-04-16T11:25:26;100079.66;;;17.46;58.42
28628;BME280;15815;46.760;19.604;2023-04-16T11:27:52;100061.94;;;17.42;59.10
28628;BME280;15815;46.760;19.604;2023-04-16T11:30:27;100079.78;;;17.55;58.55
28628;BME280;15815;46.760;19.604;2023-04-16T11:32:52;100067.25;;;17.53;58.77
28628;BME280;15815;46.760;19.604;2023-04-16T11:35:19;100082.97;;;17.92;58.33
28628;BME280;15815;46.760;19.604;2023-04-16T11:37:45;100069.84;;;17.73;58.67
28628;BME280;15815;46.760;19.604;2023-04-16T11:40:11;100081.38;;;17.91;58.38
28628;BME280;15815;46.760;19.604;2023-04-16T11:42:39;100070.97;;;18.10;57.90
28628;BME280;15815;46.760;19.604;2023-04-16T11:45:06;100069.47;;;18.05;57.28
28628;BME280;15815;46.760;19.604;2023-04-16T11:47:45;100053.88;;;17.88;57.11
28628;BME280;15815;46.760;19.604;2023-04-16T11:50:21;100069.47;;;17.83;57.34
28628;BME280;15815;46.760;19.604;2023-04-16T11:52:48;100062.56;;;17.72;57.79
28628;BME280;15815;46.760;19.604;2023-04-16T11:55:14;100055.81;;;17.78;57.91
28628;BME280;15815;46.760;19.604;2023-04-16T11:57:43;100042.56;;;17.63;59.70
28628;BME280;15815;46.760;19.604;2023-04-16T12:00:09;100029.09;;;17.54;60.37
28628;BME280;15815;46.760;19.604;2023-04-16T12:02:37;100017.72;;;17.41;59.99
28628;BME280;15815;46.760;19.604;2023-04-16T12:05:04;100038.94;;;17.49;59.68
28628;BME280;15815;46.760;19.604;2023-04-16T12:07:29;100047.81;;;17.51;60.53
28628;BME280;15815;46.760;19.604;2023-04-16T12:10:06;100054.19;;;17.55;61.62
28628;BME280;15815;46.760;19.604;2023-04-16T12:12:35;100032.53;;;17.36;60.35
28628;BME280;15815;46.760;19.604;2023-04-16T12:15:04;100045.94;;;17.36;60.80
28628;BME280;15815;46.760;19.604;2023-04-16T12:17:31;100051.50;;;17.39;60.02
28628;BME280;15815;46.760;19.604;2023-04-16T12:19:59;100046.72;;;17.36;60.38
28628;BME280;15815;46.760;19.604;2023-04-16T12:22:26;100038.47;;;17.29;59.77
28628;BME280;15815;46.760;19.604;2023-04-16T12:24:57;100051.56;;;17.61;59.82
28628;BME280;15815;46.760;19.604;2023-04-16T12:27:23;100039.81;;;17.72;59.15
28628;BME280;15815;46.760;19.604;2023-04-16T12:30:02;100036.88;;;17.97;57.85
28628;BME280;15815;46.760;19.604;2023-04-16T12:32:28;100031.94;;;18.10;58.30
28628;BME280;15815;46.760;19.604;2023-04-16T12:34:54;100027.84;;;18.11;58.16
28628;BME280;15815;46.760;19.604;2023-04-16T12:37:20;100039.88;;;18.15;56.75
28628;BME280;15815;46.760;19.604;2023-04-16T12:39:47;100033.25;;;18.18;57.20
28628;BME280;15815;46.760;19.604;2023-04-16T12:42:13;100050.91;;;18.35;57.53
28628;BME280;15815;46.760;19.604;2023-04-16T12:44:39;100039.44;;;18.48;56.31
28628;BME280;15815;46.760;19.604;2023-04-16T12:47:05;100037.84;;;18.47;56.51
28628;BME280;15815;46.760;19.604;2023-04-16T12:49:31;100005.03;;;18.33;56.38
28628;BME280;15815;46.760;19.604;2023-04-16T12:51:56;100037.56;;;18.54;56.49